sensor_id;sensor_type;location;lat;lon;timestamp;pressure;altitude;pressure_sealevel;temperature;humidity
51526;BME280;37611;51.794;21.590;2022-09-09T00:04:03;99755.64;;;11.23;96.23
51526;BME280;37611;51.794;21.590;2022-09-09T00:08:20;99742.41;;;11.17;97.91
51526;BME280;37611;51.794;21.590;2022-09-09T00:17:08;99725.36;;;11.19;97.94
51526;BME280;37611;51.794;21.590;2022-09-09T00:21:13;99711.16;;;11.20;98.89
51526;BME280;37611;51.794;21.590;2022-09-09T00:25:24;99704.95;;;11.12;99.35
51526;BME280;37611;51.794;21.590;2022-09-09T00:29:50;99709.55;;;11.12;99.93
51526;BME280;37611;51.794;21.590;2022-09-09T00:34:00;99712.38;;;11.11;100.00
51526;BME280;37611;51.794;21.590;2022-09-09T00:38:17;99717.83;;;11.10;100.00
51526;BME280;37611;51.794;21.590;2022-09-09T00:42:46;99717.64;;;11.05;100.00
51526;BME280;37611;51.794;21.590;2022-09-09T00:55:48;99702.48;;;11.06;100.00
51526;BME280;37611;51.794;21.590;2022-09-09T00:59:56;99708.27;;;11.11;100.00
51526;BME280;37611;51.794;21.590;2022-09-09T01:03:59;99704.45;;;11.05;100.00
51526;BME280;37611;51.794;21.590;2022-09-09T01:08:09;99703.25;;;11.03;100.00
51526;BME280;37611;51.794;21.590;2022-09-09T01:16:28;99692.65;;;11.02;100.00
51526;BME280;37611;51.794;21.590;2022-09-09T01:29:18;99702.50;;;11.00;100.00
51526;BME280;37611;51.794;21.590;2022-09-09T01:33:20;99710.63;;;11.00;100.00
51526;BME280;37611;51.794;21.590;2022-09-09T01:37:22;99711.34;;;11.00;100.00
51526;BME280;37611;51.794;21.590;2022-09-09T01:41:24;99706.11;;;10.96;100.00
51526;BME280;37611;51.794;21.590;2022-09-09T01:45:26;99704.34;;;10.99;100.00
51526;BME280;37611;51.794;21.590;2022-09-09T01:49:28;99691.73;;;11.01;100.00
51526;BME280;37611;51.794;21.590;2022-09-09T01:53:29;99692.20;;;11.02;100.00
51526;BME280;37611;51.794;21.590;2022-09-09T02:02:35;99689.23;;;11.05;100.00
51526;BME280;37611;51.794;21.590;2022-09-09T02:06:40;99695.88;;;11.07;100.00
51526;BME280;37611;51.794;21.590;2022-09-09T02:15:18;99687.30;;;11.07;100.00
51526;BME280;37611;51.794;21.590;2022-09-09T02:19:27;99687.20;;;11.13;100.00
51526;BME280;37611;51.794;21.590;2022-09-09T02:23:33;99665.03;;;11.12;100.00
51526;BME280;37611;51.794;21.590;2022-09-09T02:27:36;99659.95;;;11.14;100.00
51526;BME280;37611;51.794;21.590;2022-09-09T02:31:39;99661.81;;;11.13;100.00
51526;BME280;37611;51.794;21.590;2022-09-09T02:35:44;99664.14;;;11.18;100.00
51526;BME280;37611;51.794;21.590;2022-09-09T02:39:48;99669.06;;;11.20;100.00
51526;BME280;37611;51.794;21.590;2022-09-09T02:43:50;99672.61;;;11.22;100.00
51526;BME280;37611;51.794;21.590;2022-09-09T02:52:18;99660.22;;;11.32;100.00
51526;BME280;37611;51.794;21.590;2022-09-09T02:56:24;99667.41;;;11.35;100.00
51526;BME280;37611;51.794;21.590;2022-09-09T03:00:27;99676.86;;;11.39;100.00
51526;BME280;37611;51.794;21.590;2022-09-09T03:04:30;99687.87;;;11.42;100.00
51526;BME280;37611;51.794;21.590;2022-09-09T03:08:32;99692.64;;;11.48;100.00
51526;BME280;37611;51.794;21.590;2022-09-09T03:12:34;99685.63;;;11.53;100.00
51526;BME280;37611;51.794;21.590;2022-09-09T03:16:35;99687.60;;;11.58;100.00
51526;BME280;37611;51.794;21.590;2022-09-09T03:20:37;99690.11;;;11.59;100.00
51526;BME280;37611;51.794;21.590;2022-09-09T03:24:39;99685.10;;;11.52;100.00
51526;BME280;37611;51.794;21.590;2022-09-09T03:28:42;99682.91;;;11.50;100.00
51526;BME280;37611;51.794;21.590;2022-09-09T03:32:44;99680.71;;;11.53;100.00
51526;BME280;37611;51.794;21.590;2022-09-09T03:36:46;99677.35;;;11.54;100.00
51526;BME280;37611;51.794;21.590;2022-09-09T03:40:52;99676.12;;;11.55;100.00
51526;BME280;37611;51.794;21.590;2022-09-09T03:44:59;99677.56;;;11.55;100.00
51526;BME280;37611;51.794;21.590;2022-09-09T03:49:00;99678.42;;;11.55;100.00
51526;BME280;37611;51.794;21.590;2022-09-09T03:53:02;99678.48;;;11.58;100.00
51526;BME280;37611;51.794;21.590;2022-09-09T03:57:04;99683.65;;;11.59;100.00
51526;BME280;37611;51.794;21.590;2022-09-09T04:01:12;99679.23;;;11.61;100.00
51526;BME280;37611;51.794;21.590;2022-09-09T04:05:14;99679.92;;;11.64;100.00
51526;BME280;37611;51.794;21.590;2022-09-09T04:09:17;99678.27;;;11.68;100.00
51526;BME280;37611;51.794;21.590;2022-09-09T04:13:19;99675.02;;;11.70;100.00
51526;BME280;37611;51.794;21.590;2022-09-09T04:17:21;99677.61;;;11.72;100.00
51526;BME280;37611;51.794;21.590;2022-09-09T04:21:23;99675.34;;;11.72;100.00
51526;BME280;37611;51.794;21.590;2022-09-09T04:25:27;99679.41;;;11.75;100.00
51526;BME280;37611;51.794;21.590;2022-09-09T04:29:31;99678.23;;;11.74;100.00
51526;BME280;37611;51.794;21.590;2022-09-09T04:33:33;99679.96;;;11.76;100.00
51526;BME280;37611;51.794;21.590;2022-09-09T04:37:34;99680.02;;;11.82;100.00
51526;BME280;37611;51.794;21.590;2022-09-09T04:41:36;99684.21;;;11.86;100.00
51526;BME280;37611;51.794;21.590;2022-09-09T04:45:39;99690.84;;;11.86;100.00
51526;BME280;37611;51.794;21.590;2022-09-09T04:49:41;99695.80;;;11.84;100.00
51526;BME280;37611;51.794;21.590;2022-09-09T04:53:43;99696.86;;;11.84;100.00
51526;BME280;37611;51.794;21.590;2022-09-09T04:57:45;99692.38;;;11.85;100.00
51526;BME280;37611;51.794;21.590;2022-09-09T05:01:49;99697.06;;;11.87;100.00
51526;BME280;37611;51.794;21.590;2022-09-09T05:05:54;99699.78;;;11.88;100.00
51526;BME280;37611;51.794;21.590;2022-09-09T05:09:58;99705.02;;;11.87;100.00
51526;BME280;37611;51.794;21.590;2022-09-09T05:13:59;99706.98;;;11.86;100.00
51526;BME280;37611;51.794;21.590;2022-09-09T05:18:02;99710.34;;;11.84;100.00
51526;BME280;37611;51.794;21.590;2022-09-09T05:22:04;99705.80;;;11.88;100.00
51526;BME280;37611;51.794;21.590;2022-09-09T05:26:12;99704.78;;;11.90;100.00
51526;BME280;37611;51.794;21.590;2022-09-09T05:30:15;99709.83;;;11.95;100.00
51526;BME280;37611;51.794;21.590;2022-09-09T05:34:18;99713.86;;;11.94;100.00
51526;BME280;37611;51.794;21.590;2022-09-09T05:38:20;99706.98;;;11.93;100.00
51526;BME280;37611;51.794;21.590;2022-09-09T05:42:29;99710.55;;;11.97;100.00
51526;BME280;37611;51.794;21.590;2022-09-09T05:46:32;99713.16;;;11.99;100.00
51526;BME280;37611;51.794;21.590;2022-09-09T05:50:33;99714.20;;;12.00;100.00
51526;BME280;37611;51.794;21.590;2022-09-09T05:54:35;99716.04;;;12.05;100.00
51526;BME280;37611;51.794;21.590;2022-09-09T05:58:38;99723.16;;;12.10;100.00
51526;BME280;37611;51.794;21.590;2022-09-09T06:02:40;99732.11;;;12.13;100.00
51526;BME280;37611;51.794;21.590;2022-09-09T06:06:42;99735.89;;;12.11;100.00
51526;BME280;37611;51.794;21.590;2022-09-09T06:10:44;99740.54;;;12.07;100.00
51526;BME280;37611;51.794;21.590;2022-09-09T06:14:48;99742.38;;;12.08;100.00
51526;BME280;37611;51.794;21.590;2022-09-09T06:18:53;99746.68;;;12.08;100.00
51526;BME280;37611;51.794;21.590;2022-09-09T06:23:25;99747.67;;;12.07;100.00
51526;BME280;37611;51.794;21.590;2022-09-09T06:27:31;99751.36;;;12.06;100.00
51526;BME280;37611;51.794;21.590;2022-09-09T06:31:34;99753.55;;;12.05;100.00
51526;BME280;37611;51.794;21.590;2022-09-09T06:35:39;99753.23;;;12.06;100.00
51526;BME280;37611;51.794;21.590;2022-09-09T06:39:41;99753.77;;;12.11;100.00
51526;BME280;37611;51.794;21.590;2022-09-09T06:43:43;99757.54;;;12.13;100.00
51526;BME280;37611;51.794;21.590;2022-09-09T06:47:45;99760.34;;;12.12;100.00
51526;BME280;37611;51.794;21.590;2022-09-09T06:51:48;99765.98;;;12.13;100.00
51526;BME280;37611;51.794;21.590;2022-09-09T06:55:50;99764.02;;;12.13;100.00
51526;BME280;37611;51.794;21.590;2022-09-09T06:59:52;99764.98;;;12.22;100.00
51526;BME280;37611;51.794;21.590;2022-09-09T07:03:56;99767.77;;;12.29;100.00
51526;BME280;37611;51.794;21.590;2022-09-09T07:07:58;99769.36;;;12.24;100.00
51526;BME280;37611;51.794;21.590;2022-09-09T07:12:00;99769.86;;;12.24;100.00
51526;BME280;37611;51.794;21.590;2022-09-09T07:16:06;99774.60;;;12.22;100.00
51526;BME280;37611;51.794;21.590;2022-09-09T07:20:11;99774.73;;;12.23;100.00
51526;BME280;37611;51.794;21.590;2022-09-09T07:24:13;99779.32;;;12.33;100.00
51526;BME280;37611;51.794;21.590;2022-09-09T07:28:16;99786.59;;;12.33;100.00
51526;BME280;37611;51.794;21.590;2022-09-09T07:32:18;99797.38;;;12.36;100.00
51526;BME280;37611;51.794;21.590;2022-09-09T07:36:24;99805.39;;;12.35;100.00
51526;BME280;37611;51.794;21.590;2022-09-09T07:40:27;99808.31;;;12.35;100.00
51526;BME280;37611;51.794;21.590;2022-09-09T07:44:29;99810.70;;;12.42;100.00
51526;BME280;37611;51.794;21.590;2022-09-09T07:48:31;99809.96;;;12.49;100.00
51526;BME280;37611;51.794;21.590;2022-09-09T07:52:33;99808.27;;;12.54;100.00
51526;BME280;37611;51.794;21.590;2022-09-09T07:56:36;99809.57;;;12.59;100.00
51526;BME280;37611;51.794;21.590;2022-09-09T08:00:38;99814.27;;;12.63;100.00
51526;BME280;37611;51.794;21.590;2022-09-09T08:04:41;99810.41;;;12.66;100.00
51526;BME280;37611;51.794;21.590;2022-09-09T08:08:43;99815.73;;;12.67;100.00
51526;BME280;37611;51.794;21.590;2022-09-09T08:12:44;99812.06;;;12.70;100.00
51526;BME280;37611;51.794;21.590;2022-09-09T13:35:33;99963.77;;;13.85;100.00
51526;BME280;37611;51.794;21.590;2022-09-09T13:39:37;99960.80;;;13.89;100.00
51526;BME280;37611;51.794;21.590;2022-09-09T13:43:44;99954.41;;;14.01;100.00
51526;BME280;37611;51.794;21.590;2022-09-09T13:47:47;99954.79;;;14.11;100.00
51526;BME280;37611;51.794;21.590;2022-09-09T13:52:04;99958.45;;;14.19;100.00
51526;BME280;37611;51.794;21.590;2022-09-09T13:56:08;99959.23;;;14.29;100.00
51526;BME280;37611;51.794;21.590;2022-09-09T14:00:12;99956.36;;;14.31;100.00
51526;BME280;37611;51.794;21.590;2022-09-09T14:04:13;99957.07;;;14.34;100.00
51526;BME280;37611;51.794;21.590;2022-09-09T14:08:24;99963.61;;;14.35;100.00
51526;BME280;37611;51.794;21.590;2022-09-09T14:12:26;99963.01;;;14.33;100.00
51526;BME280;37611;51.794;21.590;2022-09-09T14:16:28;99970.73;;;14.29;100.00
51526;BME280;37611;51.794;21.590;2022-09-09T14:20:30;99968.92;;;14.31;100.00
51526;BME280;37611;51.794;21.590;2022-09-09T14:24:32;99965.00;;;14.33;100.00
51526;BME280;37611;51.794;21.590;2022-09-09T14:28:36;99968.20;;;14.32;100.00
51526;BME280;37611;51.794;21.590;2022-09-09T14:32:37;99967.71;;;14.26;100.00
51526;BME280;37611;51.794;21.590;2022-09-09T14:36:40;99971.41;;;14.24;100.00
51526;BME280;37611;51.794;21.590;2022-09-09T14:40:45;99970.39;;;14.26;100.00
51526;BME280;37611;51.794;21.590;2022-09-09T14:44:48;99970.61;;;14.27;100.00
51526;BME280;37611;51.794;21.590;2022-09-09T14:48:50;99970.02;;;14.27;100.00
51526;BME280;37611;51.794;21.590;2022-09-09T14:52:52;99970.77;;;14.21;100.00
51526;BME280;37611;51.794;21.590;2022-09-09T14:56:54;99971.80;;;14.18;100.00
51526;BME280;37611;51.794;21.590;2022-09-09T15:01:08;99973.47;;;14.14;100.00
51526;BME280;37611;51.794;21.590;2022-09-09T15:05:12;99974.25;;;14.07;100.00
51526;BME280;37611;51.794;21.590;2022-09-09T15:09:14;99976.82;;;14.08;100.00
51526;BME280;37611;51.794;21.590;2022-09-09T15:13:16;99982.86;;;14.09;100.00
51526;BME280;37611;51.794;21.590;2022-09-09T15:17:21;99985.20;;;14.04;100.00
51526;BME280;37611;51.794;21.590;2022-09-09T15:21:28;99984.15;;;14.02;100.00
51526;BME280;37611;51.794;21.590;2022-09-09T15:25:30;99982.05;;;14.02;100.00
51526;BME280;37611;51.794;21.590;2022-09-09T15:29:32;99970.98;;;14.02;100.00
51526;BME280;37611;51.794;21.590;2022-09-09T15:33:34;99968.71;;;14.11;100.00
51526;BME280;37611;51.794;21.590;2022-09-09T15:37:38;99966.95;;;14.15;100.00
51526;BME280;37611;51.794;21.590;2022-09-09T15:41:40;99977.76;;;14.10;100.00
51526;BME280;37611;51.794;21.590;2022-09-09T15:45:41;99976.79;;;14.13;100.00
51526;BME280;37611;51.794;21.590;2022-09-09T15:49:43;99980.98;;;14.13;100.00
51526;BME280;37611;51.794;21.590;2022-09-09T15:53:45;99979.34;;;14.10;100.00
51526;BME280;37611;51.794;21.590;2022-09-09T15:57:47;99970.52;;;14.10;100.00
51526;BME280;37611;51.794;21.590;2022-09-09T16:01:49;99962.58;;;14.09;100.00
51526;BME280;37611;51.794;21.590;2022-09-09T16:05:54;99963.74;;;14.08;100.00
51526;BME280;37611;51.794;21.590;2022-09-09T16:09:56;99961.46;;;13.99;100.00
51526;BME280;37611;51.794;21.590;2022-09-09T16:13:58;99964.44;;;13.88;100.00
51526;BME280;37611;51.794;21.590;2022-09-09T16:18:00;99961.94;;;13.79;100.00
51526;BME280;37611;51.794;21.590;2022-09-09T16:22:03;99970.84;;;13.75;100.00
51526;BME280;37611;51.794;21.590;2022-09-09T16:26:06;99975.00;;;13.70;100.00
51526;BME280;37611;51.794;21.590;2022-09-09T16:30:08;99974.46;;;13.68;100.00
51526;BME280;37611;51.794;21.590;2022-09-09T16:34:11;99979.15;;;13.68;100.00
51526;BME280;37611;51.794;21.590;2022-09-09T16:38:14;99971.15;;;13.66;100.00
51526;BME280;37611;51.794;21.590;2022-09-09T16:42:15;99974.79;;;13.64;100.00
51526;BME280;37611;51.794;21.590;2022-09-09T16:46:19;99977.34;;;13.63;100.00
51526;BME280;37611;51.794;21.590;2022-09-09T16:50:21;99980.86;;;13.64;100.00
51526;BME280;37611;51.794;21.590;2022-09-09T16:54:22;99982.86;;;13.59;100.00
51526;BME280;37611;51.794;21.590;2022-09-09T16:58:27;99984.23;;;13.55;100.00
51526;BME280;37611;51.794;21.590;2022-09-09T17:02:30;99994.72;;;13.55;100.00
51526;BME280;37611;51.794;21.590;2022-09-09T17:06:33;99995.99;;;13.54;100.00
51526;BME280;37611;51.794;21.590;2022-09-09T17:10:43;99996.55;;;13.52;100.00
51526;BME280;37611;51.794;21.590;2022-09-09T17:14:44;99997.91;;;13.50;100.00
51526;BME280;37611;51.794;21.590;2022-09-09T17:18:47;99999.96;;;13.42;100.00
51526;BME280;37611;51.794;21.590;2022-09-09T17:22:49;100008.34;;;13.37;100.00
51526;BME280;37611;51.794;21.590;2022-09-09T17:26:51;100009.07;;;13.37;100.00
51526;BME280;37611;51.794;21.590;2022-09-09T17:30:53;100005.19;;;13.37;100.00
51526;BME280;37611;51.794;21.590;2022-09-09T17:34:55;100005.44;;;13.38;100.00
51526;BME280;37611;51.794;21.590;2022-09-09T17:38:58;100015.44;;;13.42;100.00
51526;BME280;37611;51.794;21.590;2022-09-09T17:43:03;100013.61;;;13.42;100.00
51526;BME280;37611;51.794;21.590;2022-09-09T17:47:05;100014.43;;;13.43;100.00
51526;BME280;37611;51.794;21.590;2022-09-09T17:51:09;100016.95;;;13.37;100.00
51526;BME280;37611;51.794;21.590;2022-09-09T17:55:12;100013.86;;;13.38;100.00
51526;BME280;37611;51.794;21.590;2022-09-09T17:59:16;100012.69;;;13.39;100.00
51526;BME280;37611;51.794;21.590;2022-09-09T18:03:18;100012.63;;;13.40;100.00
51526;BME280;37611;51.794;21.590;2022-09-09T18:07:20;100018.65;;;13.44;100.00
51526;BME280;37611;51.794;21.590;2022-09-09T18:11:23;100019.71;;;13.44;100.00
51526;BME280;37611;51.794;21.590;2022-09-09T18:15:26;100028.56;;;13.46;100.00
51526;BME280;37611;51.794;21.590;2022-09-09T18:19:29;100026.43;;;13.45;100.00
51526;BME280;37611;51.794;21.590;2022-09-09T18:23:36;100022.20;;;13.45;100.00
51526;BME280;37611;51.794;21.590;2022-09-09T18:27:38;100022.70;;;13.44;100.00
51526;BME280;37611;51.794;21.590;2022-09-09T18:31:40;100024.06;;;13.43;100.00
51526;BME280;37611;51.794;21.590;2022-09-09T18:35:43;100022.48;;;13.43;100.00
51526;BME280;37611;51.794;21.590;2022-09-09T18:39:44;100032.65;;;13.37;100.00
51526;BME280;37611;51.794;21.590;2022-09-09T18:43:48;100034.95;;;13.32;100.00
51526;BME280;37611;51.794;21.590;2022-09-09T18:47:50;100029.28;;;13.29;100.00
51526;BME280;37611;51.794;21.590;2022-09-09T18:51:52;100020.60;;;13.32;100.00
51526;BME280;37611;51.794;21.590;2022-09-09T18:55:59;100022.64;;;13.35;100.00
51526;BME280;37611;51.794;21.590;2022-09-09T19:00:04;100021.07;;;13.38;100.00
51526;BME280;37611;51.794;21.590;2022-09-09T19:04:07;100026.70;;;13.43;100.00
51526;BME280;37611;51.794;21.590;2022-09-09T19:08:09;100034.31;;;13.46;100.00
51526;BME280;37611;51.794;21.590;2022-09-09T19:12:10;100035.93;;;13.42;100.00
51526;BME280;37611;51.794;21.590;2022-09-09T19:16:13;100036.02;;;13.42;100.00
51526;BME280;37611;51.794;21.590;2022-09-09T19:20:15;100036.06;;;13.44;100.00
51526;BME280;37611;51.794;21.590;2022-09-09T19:24:22;100041.80;;;13.45;100.00
51526;BME280;37611;51.794;21.590;2022-09-09T19:28:25;100043.82;;;13.44;100.00
51526;BME280;37611;51.794;21.590;2022-09-09T19:32:27;100042.13;;;13.43;100.00
51526;BME280;37611;51.794;21.590;2022-09-09T19:36:29;100035.23;;;13.45;100.00
51526;BME280;37611;51.794;21.590;2022-09-09T19:40:34;100036.45;;;13.45;100.00
51526;BME280;37611;51.794;21.590;2022-09-09T19:44:36;100035.84;;;13.41;100.00
51526;BME280;37611;51.794;21.590;2022-09-09T19:48:40;100036.58;;;13.37;100.00
51526;BME280;37611;51.794;21.590;2022-09-09T19:52:42;100036.27;;;13.30;100.00
51526;BME280;37611;51.794;21.590;2022-09-09T19:56:44;100034.45;;;13.29;100.00
51526;BME280;37611;51.794;21.590;2022-09-09T20:00:45;100040.16;;;13.26;100.00
51526;BME280;37611;51.794;21.590;2022-09-09T20:04:48;100030.86;;;13.24;100.00
51526;BME280;37611;51.794;21.590;2022-09-09T20:08:49;100035.95;;;13.23;100.00
51526;BME280;37611;51.794;21.590;2022-09-09T20:12:51;100040.92;;;13.26;100.00
51526;BME280;37611;51.794;21.590;2022-09-09T20:16:53;100044.09;;;13.24;100.00
51526;BME280;37611;51.794;21.590;2022-09-09T20:20:59;100043.73;;;13.24;100.00
51526;BME280;37611;51.794;21.590;2022-09-09T20:25:01;100035.23;;;13.21;100.00
51526;BME280;37611;51.794;21.590;2022-09-09T20:29:06;100039.79;;;13.21;100.00
51526;BME280;37611;51.794;21.590;2022-09-09T20:33:08;100038.14;;;13.17;100.00
51526;BME280;37611;51.794;21.590;2022-09-09T20:37:11;100031.27;;;13.11;100.00
51526;BME280;37611;51.794;21.590;2022-09-09T20:41:14;100032.98;;;13.05;100.00
51526;BME280;37611;51.794;21.590;2022-09-09T20:45:19;100036.16;;;13.02;100.00
51526;BME280;37611;51.794;21.590;2022-09-09T20:49:21;100046.08;;;13.01;100.00
51526;BME280;37611;51.794;21.590;2022-09-09T20:53:24;100047.54;;;12.97;100.00
51526;BME280;37611;51.794;21.590;2022-09-09T20:57:26;100045.13;;;12.90;100.00
51526;BME280;37611;51.794;21.590;2022-09-09T21:01:28;100046.29;;;12.85;100.00
51526;BME280;37611;51.794;21.590;2022-09-09T21:05:30;100044.59;;;12.79;100.00
51526;BME280;37611;51.794;21.590;2022-09-09T21:09:32;100043.11;;;12.77;100.00
51526;BME280;37611;51.794;21.590;2022-09-09T21:13:35;100047.65;;;12.80;100.00
51526;BME280;37611;51.794;21.590;2022-09-09T21:17:37;100048.43;;;12.79;100.00
51526;BME280;37611;51.794;21.590;2022-09-09T21:21:40;100044.09;;;12.72;100.00
51526;BME280;37611;51.794;21.590;2022-09-09T21:25:43;100039.63;;;12.71;100.00
51526;BME280;37611;51.794;21.590;2022-09-09T21:29:45;100039.61;;;12.71;100.00
51526;BME280;37611;51.794;21.590;2022-09-09T21:33:48;100046.45;;;12.71;100.00
51526;BME280;37611;51.794;21.590;2022-09-09T21:37:50;100043.49;;;12.68;100.00
51526;BME280;37611;51.794;21.590;2022-09-09T21:41:51;100040.42;;;12.65;100.00
51526;BME280;37611;51.794;21.590;2022-09-09T21:45:53;100048.55;;;12.61;100.00
51526;BME280;37611;51.794;21.590;2022-09-09T21:49:55;100045.06;;;12.60;100.00
51526;BME280;37611;51.794;21.590;2022-09-09T21:53:56;100042.23;;;12.58;100.00
51526;BME280;37611;51.794;21.590;2022-09-09T21:57:58;100038.27;;;12.54;100.00
51526;BME280;37611;51.794;21.590;2022-09-09T22:02:00;100041.38;;;12.55;100.00
51526;BME280;37611;51.794;21.590;2022-09-09T22:06:04;100042.05;;;12.52;100.00
51526;BME280;37611;51.794;21.590;2022-09-09T22:10:07;100052.60;;;12.48;100.00
51526;BME280;37611;51.794;21.590;2022-09-09T22:14:10;100052.80;;;12.43;100.00
51526;BME280;37611;51.794;21.590;2022-09-09T22:18:12;100052.82;;;12.41;100.00
51526;BME280;37611;51.794;21.590;2022-09-09T22:22:17;100051.64;;;12.39;100.00
51526;BME280;37611;51.794;21.590;2022-09-09T22:26:20;100054.33;;;12.40;100.00
51526;BME280;37611;51.794;21.590;2022-09-09T22:30:22;100050.23;;;12.41;100.00
51526;BME280;37611;51.794;21.590;2022-09-09T22:34:24;100048.48;;;12.44;100.00
51526;BME280;37611;51.794;21.590;2022-09-09T22:38:28;100049.33;;;12.43;100.00
51526;BME280;37611;51.794;21.590;2022-09-09T22:42:29;100047.81;;;12.42;100.00
51526;BME280;37611;51.794;21.590;2022-09-09T22:46:31;100047.77;;;12.43;100.00
51526;BME280;37611;51.794;21.590;2022-09-09T22:50:34;100048.35;;;12.42;100.00
51526;BME280;37611;51.794;21.590;2022-09-09T22:54:36;100051.86;;;12.40;100.00
51526;BME280;37611;51.794;21.590;2022-09-09T22:58:38;100052.72;;;12.39;100.00
51526;BME280;37611;51.794;21.590;2022-09-09T23:02:40;100051.17;;;12.37;100.00
51526;BME280;37611;51.794;21.590;2022-09-09T23:06:42;100043.05;;;12.38;100.00
51526;BME280;37611;51.794;21.590;2022-09-09T23:10:45;100038.34;;;12.37;100.00
51526;BME280;37611;51.794;21.590;2022-09-09T23:14:47;100028.75;;;12.37;100.00
51526;BME280;37611;51.794;21.590;2022-09-09T23:18:49;100025.42;;;12.38;100.00
51526;BME280;37611;51.794;21.590;2022-09-09T23:22:55;100022.23;;;12.40;100.00
51526;BME280;37611;51.794;21.590;2022-09-09T23:26:57;100020.79;;;12.42;100.00
51526;BME280;37611;51.794;21.590;2022-09-09T23:30:58;100016.23;;;12.42;100.00
51526;BME280;37611;51.794;21.590;2022-09-09T23:35:00;100016.17;;;12.42;100.00
51526;BME280;37611;51.794;21.590;2022-09-09T23:39:03;100013.44;;;12.42;100.00
51526;BME280;37611;51.794;21.590;2022-09-09T23:43:05;100015.13;;;12.44;100.00
51526;BME280;37611;51.794;21.590;2022-09-09T23:47:08;100009.34;;;12.44;100.00
51526;BME280;37611;51.794;21.590;2022-09-09T23:51:11;100008.34;;;12.39;100.00
51526;BME280;37611;51.794;21.590;2022-09-09T23:55:18;100009.26;;;12.35;100.00
51526;BME280;37611;51.794;21.590;2022-09-09T23:59:19;100003.35;;;12.31;100.00
